createdAt,value
2023-03-16T00:02:24.391Z,0.50
2023-03-16T00:04:51.355Z,0.40
2023-03-16T00:07:18.183Z,0.30
2023-03-16T00:09:45.034Z,0.60
2023-03-16T00:12:17.713Z,0.30
2023-03-16T00:14:47.065Z,0.50
2023-03-16T00:17:19.016Z,0.52
2023-03-16T00:19:54.997Z,1.02
2023-03-16T00:22:28.300Z,0.57
2023-03-16T00:24:55.561Z,0.30
2023-03-16T00:27:24.892Z,0.50
2023-03-16T00:29:56.714Z,0.82
2023-03-16T00:32:29.816Z,0.93
2023-03-16T00:34:56.793Z,0.68
2023-03-16T00:37:25.369Z,0.57
2023-03-16T00:39:56.165Z,0.40
2023-03-16T00:42:27.637Z,0.50
2023-03-16T00:44:57.570Z,0.50
2023-03-16T00:47:26.391Z,0.43
2023-03-16T00:49:53.304Z,0.52
2023-03-16T00:52:20.497Z,0.40
2023-03-16T00:54:48.280Z,0.55
2023-03-16T00:57:18.996Z,0.50
2023-03-16T00:59:46.573Z,0.43
2023-03-16T01:02:15.145Z,0.40
2023-03-16T01:04:43.746Z,0.60
2023-03-16T01:07:13.994Z,0.55
2023-03-16T01:09:42.215Z,0.38
2023-03-16T01:12:17.789Z,0.60
2023-03-16T01:14:47.776Z,0.32
2023-03-16T01:17:17.202Z,0.32
2023-03-16T01:19:44.881Z,0.40
2023-03-16T01:22:12.360Z,0.50
2023-03-16T01:24:40.702Z,0.50
2023-03-16T01:27:08.206Z,0.32
2023-03-16T01:29:35.729Z,0.30
2023-03-16T01:32:04.294Z,0.60
2023-03-16T01:34:32.049Z,0.40
2023-03-16T01:36:59.324Z,0.35
2023-03-16T01:39:26.322Z,0.47
2023-03-16T01:41:53.470Z,0.55
2023-03-16T01:44:24.566Z,0.40
2023-03-16T01:46:51.287Z,0.45
2023-03-16T01:49:32.796Z,0.40
2023-03-16T01:52:02.418Z,0.30
2023-03-16T01:54:45.896Z,0.50
2023-03-16T01:57:20.036Z,0.38
2023-03-16T02:00:10.983Z,0.45
2023-03-16T02:02:43.740Z,0.70
2023-03-16T02:05:19.589Z,0.43
2023-03-16T02:07:51.910Z,0.60
2023-03-16T02:12:47.170Z,0.50
2023-03-16T02:15:16.039Z,0.60
2023-03-16T02:17:44.850Z,0.40
2023-03-16T02:20:30.689Z,0.40
2023-03-16T02:22:58.366Z,0.50
2023-03-16T02:25:53.338Z,0.45
2023-03-16T02:28:20.127Z,0.50
2023-03-16T02:30:47.937Z,0.45
2023-03-16T02:33:16.292Z,0.55
2023-03-16T02:35:43.145Z,0.43
2023-03-16T02:38:10.435Z,0.60
2023-03-16T02:40:38.759Z,0.60
2023-03-16T02:43:08.019Z,0.57
2023-03-16T02:45:50.064Z,0.32
2023-03-16T02:48:32.273Z,0.50
2023-03-16T02:50:59.203Z,0.40
2023-03-16T02:53:26.303Z,0.40
2023-03-16T02:55:53.271Z,0.50
2023-03-16T02:58:20.150Z,0.52
2023-03-16T03:00:46.942Z,0.40
2023-03-16T03:03:14.375Z,0.47
2023-03-16T03:05:41.465Z,0.65
2023-03-16T03:08:08.299Z,0.50
2023-03-16T03:10:35.075Z,0.52
2023-03-16T03:13:01.911Z,0.50
2023-03-16T03:15:28.876Z,0.47
2023-03-16T03:17:55.672Z,0.50
2023-03-16T03:20:22.488Z,0.50
2023-03-16T03:22:50.225Z,0.60
2023-03-16T03:25:18.573Z,0.57
2023-03-16T03:27:46.990Z,0.60
2023-03-16T03:30:16.964Z,0.60
2023-03-16T03:32:44.335Z,0.70
2023-03-16T03:35:13.578Z,0.65
2023-03-16T03:37:42.457Z,0.90
2023-03-16T03:40:11.736Z,0.60
2023-03-16T03:42:39.679Z,0.60
2023-03-16T03:45:07.898Z,0.50
2023-03-16T03:47:34.824Z,0.47
2023-03-16T03:50:01.627Z,0.50
2023-03-16T03:52:28.814Z,0.60
2023-03-16T03:54:55.577Z,0.70
2023-03-16T03:57:22.487Z,0.60
2023-03-16T03:59:49.253Z,0.70
2023-03-16T04:02:16.481Z,0.57
2023-03-16T04:04:44.088Z,0.60
2023-03-16T04:07:11.621Z,0.70
2023-03-16T04:09:38.400Z,0.80
2023-03-16T04:12:06.257Z,0.60
2023-03-16T04:14:33.278Z,0.82
2023-03-16T04:17:00.324Z,1.00
2023-03-16T04:19:27.197Z,0.70
2023-03-16T04:21:54.053Z,0.90
2023-03-16T04:24:22.363Z,0.80
2023-03-16T04:26:49.496Z,0.77
2023-03-16T04:29:19.630Z,0.80
2023-03-16T04:31:46.830Z,0.52
2023-03-16T04:34:15.452Z,0.80
2023-03-16T04:36:42.245Z,0.70
2023-03-16T04:39:10.453Z,0.70
2023-03-16T04:41:37.507Z,0.70
2023-03-16T04:44:04.843Z,0.80
2023-03-16T04:46:32.470Z,0.80
2023-03-16T04:48:59.328Z,0.52
2023-03-16T04:51:26.701Z,0.60
2023-03-16T04:53:53.880Z,0.70
2023-03-16T04:56:20.915Z,1.05
2023-03-16T04:58:49.359Z,0.80
2023-03-16T05:01:17.293Z,0.70
2023-03-16T05:03:44.522Z,1.20
2023-03-16T05:06:12.925Z,0.82
2023-03-16T05:08:39.760Z,0.60
2023-03-16T05:11:06.968Z,0.55
2023-03-16T05:13:34.150Z,0.60
2023-03-16T05:16:01.819Z,0.52
2023-03-16T05:18:28.785Z,0.77
2023-03-16T05:20:56.472Z,0.65
2023-03-16T05:23:23.609Z,0.70
2023-03-16T05:25:50.678Z,0.70
2023-03-16T05:28:17.700Z,0.88
2023-03-16T05:30:47.594Z,0.70
2023-03-16T05:33:14.382Z,1.00
2023-03-16T05:35:41.268Z,0.70
2023-03-16T05:38:10.020Z,0.52
2023-03-16T05:40:37.427Z,0.68
2023-03-16T05:43:04.731Z,0.73
2023-03-16T05:45:31.652Z,0.55
2023-03-16T05:47:58.471Z,0.60
2023-03-16T05:50:26.652Z,0.65
2023-03-16T05:52:54.211Z,0.60
2023-03-16T05:55:21.168Z,1.00
2023-03-16T05:57:47.983Z,0.70
2023-03-16T06:00:16.543Z,0.57
2023-03-16T06:02:45.140Z,1.00
2023-03-16T06:05:11.967Z,0.70
2023-03-16T06:07:38.908Z,0.90
2023-03-16T06:10:06.751Z,0.70
2023-03-16T06:12:34.667Z,0.95
2023-03-16T06:15:02.143Z,0.75
2023-03-16T06:17:29.491Z,0.70
2023-03-16T06:19:56.509Z,0.80
2023-03-16T06:22:24.073Z,1.20
2023-03-16T06:24:51.841Z,0.90
2023-03-16T06:27:22.252Z,2.08
2023-03-16T06:29:49.040Z,1.15
2023-03-16T06:32:16.137Z,0.80
2023-03-16T06:34:42.978Z,1.10
2023-03-16T06:37:09.955Z,0.90
2023-03-16T06:39:36.762Z,0.75
2023-03-16T06:42:05.036Z,0.80
2023-03-16T06:44:32.198Z,0.82
2023-03-16T06:46:59.220Z,0.80
2023-03-16T06:49:26.145Z,0.98
2023-03-16T06:51:52.953Z,1.00
2023-03-16T06:54:19.724Z,1.05
2023-03-16T06:56:46.663Z,1.35
2023-03-16T06:59:13.988Z,1.20
2023-03-16T07:01:42.169Z,0.98
2023-03-16T07:04:09.206Z,1.17
2023-03-16T07:06:36.184Z,0.90
2023-03-16T07:09:03.889Z,1.10
2023-03-16T07:11:32.811Z,1.45
2023-03-16T07:13:59.856Z,1.80
2023-03-16T07:16:26.655Z,1.52
2023-03-16T07:18:53.577Z,1.10
2023-03-16T07:21:20.502Z,1.20
2023-03-16T07:23:47.543Z,1.35
2023-03-16T07:26:14.336Z,1.10
2023-03-16T07:28:41.614Z,1.58
2023-03-16T07:31:09.504Z,1.10
2023-03-16T07:33:36.985Z,1.17
2023-03-16T07:36:04.519Z,1.30
2023-03-16T07:38:32.683Z,1.10
2023-03-16T07:41:01.076Z,1.50
2023-03-16T07:43:29.445Z,1.13
2023-03-16T07:45:56.354Z,1.45
2023-03-16T07:48:23.411Z,0.70
2023-03-16T07:50:50.853Z,1.17
2023-03-16T07:53:18.088Z,1.00
2023-03-16T07:55:45.146Z,0.90
2023-03-16T07:58:12.401Z,0.70
2023-03-16T08:00:40.077Z,0.80
2023-03-16T08:03:07.355Z,0.63
2023-03-16T08:05:34.458Z,0.73
2023-03-16T08:08:01.861Z,0.65
2023-03-16T08:10:30.186Z,0.68
2023-03-16T08:12:57.612Z,0.80
2023-03-16T08:15:25.181Z,2.75
2023-03-16T08:18:07.071Z,0.60
2023-03-16T08:20:34.319Z,0.80
2023-03-16T08:23:01.051Z,2.55
2023-03-16T08:25:27.877Z,0.68
2023-03-16T08:27:55.299Z,0.68
2023-03-16T08:30:22.758Z,0.80
2023-03-16T08:32:50.634Z,0.85
2023-03-16T08:35:17.667Z,1.00
2023-03-16T08:37:46.340Z,1.27
2023-03-16T08:40:17.108Z,0.88
2023-03-16T08:42:45.264Z,0.57
2023-03-16T08:45:14.216Z,0.75
2023-03-16T08:47:41.484Z,0.68
2023-03-16T08:50:09.723Z,0.75
2023-03-16T08:52:37.140Z,1.08
2023-03-16T08:55:05.864Z,0.98
2023-03-16T08:57:33.725Z,0.60
2023-03-16T09:00:01.631Z,0.70
2023-03-16T09:02:28.415Z,0.50
2023-03-16T09:04:56.314Z,0.70
2023-03-16T09:07:23.408Z,0.60
2023-03-16T09:09:51.153Z,1.20
2023-03-16T09:12:18.801Z,0.85
2023-03-16T09:14:46.074Z,0.70
2023-03-16T09:17:13.022Z,0.75
2023-03-16T09:19:51.161Z,0.70
2023-03-16T09:22:20.381Z,0.63
2023-03-16T09:24:48.541Z,0.70
2023-03-16T09:27:16.345Z,1.02
2023-03-16T09:29:45.303Z,0.80
2023-03-16T09:32:13.028Z,1.35
2023-03-16T09:34:40.187Z,1.40
2023-03-16T09:37:07.110Z,1.20
2023-03-16T09:39:33.843Z,1.67
2023-03-16T09:42:36.566Z,1.10
2023-03-16T09:45:12.478Z,1.00
2023-03-16T09:47:41.660Z,1.08
2023-03-16T09:50:35.232Z,1.55
2023-03-16T09:53:29.773Z,1.30
2023-03-16T09:56:04.436Z,1.30
2023-03-16T09:58:32.919Z,1.05
2023-03-16T10:01:12.216Z,0.80
2023-03-16T10:04:13.304Z,0.75
2023-03-16T10:07:10.052Z,0.98
2023-03-16T10:09:48.324Z,1.02
2023-03-16T10:12:16.294Z,1.50
2023-03-16T10:14:55.364Z,1.02
2023-03-16T10:17:29.336Z,1.10
2023-03-16T10:20:11.158Z,1.05
2023-03-16T10:22:42.389Z,0.60
2023-03-16T10:25:15.804Z,1.20
2023-03-16T10:27:44.868Z,0.95
2023-03-16T10:30:33.418Z,1.20
2023-03-16T10:33:03.481Z,1.10
2023-03-16T10:36:12.773Z,0.90
2023-03-16T10:38:59.687Z,1.08
2023-03-16T10:41:32.150Z,1.27
2023-03-16T10:44:12.220Z,1.15
2023-03-16T10:46:48.500Z,1.20
2023-03-16T10:49:27.848Z,1.60
2023-03-16T10:52:03.165Z,1.30
2023-03-16T10:54:34.394Z,1.42
2023-03-16T10:57:14.197Z,4.70
2023-03-16T10:59:40.990Z,1.95
2023-03-16T11:02:21.001Z,1.67
2023-03-16T11:04:48.021Z,1.58
2023-03-16T11:07:19.187Z,1.40
2023-03-16T11:09:47.773Z,1.93
2023-03-16T11:12:30.465Z,2.17
2023-03-16T11:15:09.387Z,2.10
2023-03-16T11:17:49.800Z,2.05
2023-03-16T11:20:23.336Z,1.63
2023-03-16T11:22:51.343Z,1.80
2023-03-16T11:25:29.700Z,1.55
2023-03-16T11:28:17.772Z,2.05
2023-03-16T11:30:51.901Z,1.80
2023-03-16T11:33:18.716Z,2.20
2023-03-16T11:36:02.304Z,1.85
2023-03-16T11:38:46.612Z,1.95
2023-03-16T11:41:39.625Z,2.17
2023-03-16T11:44:23.163Z,2.40
2023-03-16T11:47:10.288Z,2.00
2023-03-16T11:49:57.492Z,2.25
2023-03-16T11:53:11.429Z,2.08
2023-03-16T11:55:47.258Z,2.28
2023-03-16T11:58:35.163Z,1.90
2023-03-16T12:01:29.674Z,2.25
2023-03-16T12:04:38.972Z,2.17
2023-03-16T12:07:50.716Z,2.55
2023-03-16T12:10:47.092Z,1.85
2023-03-16T12:13:33.756Z,1.95
2023-03-16T12:16:11.919Z,2.30
2023-03-16T12:19:01.621Z,1.88
2023-03-16T12:21:53.324Z,3.80
2023-03-16T12:24:26.323Z,2.08
2023-03-16T12:26:53.941Z,2.10
2023-03-16T12:29:48.539Z,1.85
2023-03-16T12:32:22.689Z,2.20
2023-03-16T12:35:15.969Z,2.00
2023-03-16T12:37:56.661Z,1.98
2023-03-16T12:40:44.610Z,1.80
2023-03-16T12:43:11.330Z,2.45
2023-03-16T12:46:05.715Z,2.47
2023-03-16T12:48:37.769Z,2.08
2023-03-16T12:53:45.766Z,2.10
2023-03-16T12:56:18.649Z,2.20
2023-03-16T12:58:48.845Z,2.30
2023-03-16T13:01:18.762Z,2.13
2023-03-16T13:03:49.486Z,2.20
2023-03-16T13:06:19.499Z,1.90
2023-03-16T13:08:52.377Z,2.50
2023-03-16T13:11:19.301Z,1.88
2023-03-16T13:14:16.029Z,2.08
2023-03-16T13:16:45.542Z,2.17
2023-03-16T13:19:30.417Z,2.53
2023-03-16T13:22:23.108Z,2.53
2023-03-16T13:25:10.009Z,2.17
2023-03-16T13:27:40.273Z,2.10
2023-03-16T13:30:23.542Z,1.85
2023-03-16T13:32:56.274Z,3.15
2023-03-16T13:35:27.913Z,2.28
2023-03-16T13:37:55.043Z,2.60
2023-03-16T13:40:23.877Z,4.40
2023-03-16T13:42:53.252Z,2.40
2023-03-16T13:45:24.425Z,3.10
2023-03-16T13:47:51.732Z,2.33
2023-03-16T13:50:19.490Z,2.45
2023-03-16T13:53:10.327Z,6.35
2023-03-16T13:55:38.025Z,2.60
2023-03-16T13:58:05.336Z,2.13
2023-03-16T14:00:35.693Z,2.58
2023-03-16T14:03:14.497Z,2.15
2023-03-16T14:05:41.464Z,2.80
2023-03-16T14:08:23.585Z,2.42
2023-03-16T14:10:51.678Z,2.83
2023-03-16T14:13:38.235Z,2.25
2023-03-16T14:16:18.378Z,2.40
2023-03-16T14:18:52.226Z,2.40
2023-03-16T14:21:27.389Z,2.22
2023-03-16T14:23:58.628Z,2.30
2023-03-16T14:26:26.050Z,5.28
2023-03-16T14:29:06.266Z,3.30
2023-03-16T14:31:38.911Z,2.53
2023-03-16T14:34:19.957Z,2.47
2023-03-16T14:36:47.682Z,2.50
2023-03-16T14:39:19.424Z,2.40
2023-03-16T14:41:51.330Z,2.60
2023-03-16T14:44:32.381Z,2.35
2023-03-16T14:47:00.306Z,2.90
2023-03-16T14:49:31.464Z,2.70
2023-03-16T14:52:05.321Z,2.17
2023-03-16T14:54:32.069Z,2.30
2023-03-16T14:57:02.207Z,2.53
2023-03-16T14:59:29.369Z,3.08
2023-03-16T15:01:56.773Z,2.65
2023-03-16T15:04:36.289Z,2.53
2023-03-16T15:07:19.477Z,2.63
2023-03-16T15:09:46.655Z,2.83
2023-03-16T15:12:18.171Z,2.60
2023-03-16T15:15:04.495Z,2.75
2023-03-16T15:17:31.739Z,2.58
2023-03-16T15:19:59.080Z,2.80
2023-03-16T15:22:31.776Z,5.70
2023-03-16T15:25:00.185Z,3.63
2023-03-16T15:27:35.080Z,3.22
2023-03-16T15:30:02.384Z,2.78
2023-03-16T15:32:30.436Z,2.55
2023-03-16T15:34:57.785Z,3.00
2023-03-16T15:37:27.630Z,3.30
2023-03-16T15:39:54.691Z,2.50
2023-03-16T15:42:21.553Z,4.03
2023-03-16T15:44:48.412Z,3.05
2023-03-16T15:47:15.417Z,2.80
2023-03-16T15:49:47.852Z,2.60
2023-03-16T15:52:32.030Z,3.03
2023-03-16T15:55:04.331Z,3.00
2023-03-16T15:57:32.082Z,2.55
2023-03-16T15:59:59.363Z,2.53
2023-03-16T16:02:31.361Z,2.92
2023-03-16T16:07:25.492Z,3.67
2023-03-16T16:09:52.797Z,5.65
2023-03-16T16:12:26.734Z,4.78
2023-03-16T16:14:56.222Z,3.78
2023-03-16T16:17:36.536Z,3.13
2023-03-16T16:20:29.339Z,3.08
2023-03-16T16:23:03.303Z,3.10
2023-03-16T16:25:39.361Z,2.92
2023-03-16T16:28:19.059Z,3.10
2023-03-16T16:30:46.329Z,2.75
2023-03-16T16:33:35.255Z,3.38
2023-03-16T16:36:11.193Z,3.67
2023-03-16T16:38:38.038Z,3.40
2023-03-16T16:41:09.084Z,3.10
2023-03-16T16:43:44.481Z,2.95
2023-03-16T16:46:17.496Z,3.17
2023-03-16T16:48:47.746Z,3.58
2023-03-16T16:51:26.129Z,3.13
2023-03-16T16:53:58.102Z,2.88
2023-03-16T16:56:31.945Z,3.78
2023-03-16T16:59:01.575Z,2.70
2023-03-16T17:01:35.265Z,3.00
2023-03-16T17:04:02.958Z,3.60
2023-03-16T17:06:30.486Z,3.17
2023-03-16T17:08:57.504Z,3.67
2023-03-16T17:11:30.030Z,3.65
2023-03-16T17:14:00.252Z,4.20
2023-03-16T17:16:29.335Z,3.40
2023-03-16T17:18:56.118Z,3.20
2023-03-16T17:21:25.221Z,5.18
2023-03-16T17:23:52.854Z,3.78
2023-03-16T17:26:24.319Z,3.78
2023-03-16T17:29:02.276Z,5.07
2023-03-16T17:31:36.618Z,9.70
2023-03-16T17:34:16.557Z,3.78
2023-03-16T17:36:44.592Z,4.68
2023-03-16T17:39:29.851Z,11.00
2023-03-16T17:42:02.755Z,11.93
2023-03-16T17:44:50.831Z,10.35
2023-03-16T17:47:23.284Z,6.25
2023-03-16T17:49:50.879Z,6.00
2023-03-16T17:52:23.489Z,6.03
2023-03-16T17:54:52.596Z,6.55
2023-03-16T17:57:31.907Z,6.20
2023-03-16T18:00:04.735Z,9.15
2023-03-16T18:02:42.649Z,11.35
2023-03-16T18:05:27.961Z,8.10
2023-03-16T18:07:58.348Z,7.00
2023-03-16T18:10:31.306Z,8.20
2023-03-16T18:13:03.653Z,8.50
2023-03-16T18:15:33.473Z,7.75
2023-03-16T18:18:01.190Z,7.47
2023-03-16T18:20:34.451Z,7.97
2023-03-16T18:23:10.230Z,8.52
2023-03-16T18:25:42.064Z,7.40
2023-03-16T18:28:10.885Z,9.90
2023-03-16T18:30:39.660Z,10.07
2023-03-16T18:33:15.876Z,7.72
2023-03-16T18:35:43.203Z,6.95
2023-03-16T18:38:24.112Z,9.68
2023-03-16T18:40:50.884Z,9.20
2023-03-16T18:43:18.312Z,8.65
2023-03-16T18:45:47.165Z,7.05
2023-03-16T18:48:26.511Z,6.43
2023-03-16T18:50:53.486Z,5.70
2023-03-16T18:53:22.299Z,5.22
2023-03-16T18:55:50.392Z,5.47
2023-03-16T18:58:24.898Z,6.10
2023-03-16T19:00:59.460Z,6.00
2023-03-16T19:03:32.212Z,5.80
2023-03-16T19:06:01.224Z,5.18
2023-03-16T19:08:29.441Z,4.70
2023-03-16T19:11:00.658Z,5.70
2023-03-16T19:13:27.831Z,7.13
2023-03-16T19:15:56.088Z,5.70
2023-03-16T19:18:26.202Z,5.82
2023-03-16T19:20:54.878Z,5.50
2023-03-16T19:23:32.926Z,4.50
2023-03-16T19:26:00.000Z,5.85
2023-03-16T19:28:34.063Z,6.32
2023-03-16T19:31:04.022Z,5.43
2023-03-16T19:33:31.173Z,5.07
2023-03-16T19:35:59.129Z,4.50
2023-03-16T19:38:26.482Z,4.30
2023-03-16T19:40:58.607Z,4.90
2023-03-16T19:43:27.115Z,4.75
2023-03-16T19:45:56.288Z,5.88
2023-03-16T19:48:33.041Z,6.18
2023-03-16T19:51:00.093Z,5.55
2023-03-16T19:53:27.450Z,5.50
2023-03-16T19:55:54.690Z,5.70
2023-03-16T19:58:27.310Z,5.57
2023-03-16T20:00:54.538Z,6.18
2023-03-16T20:03:21.957Z,4.65
2023-03-16T20:05:48.710Z,4.22
2023-03-16T20:08:21.271Z,4.50
2023-03-16T20:10:48.626Z,4.80
2023-03-16T20:13:15.743Z,4.80
2023-03-16T20:15:43.524Z,4.38
2023-03-16T20:18:16.179Z,4.90
2023-03-16T20:20:43.692Z,4.18
2023-03-16T20:23:21.316Z,4.53
2023-03-16T20:25:49.215Z,4.40
2023-03-16T20:28:22.455Z,5.13
2023-03-16T20:30:49.749Z,5.50
2023-03-16T20:33:18.801Z,4.63
2023-03-16T20:35:46.864Z,4.82
2023-03-16T20:38:15.032Z,5.88
2023-03-16T20:40:47.203Z,4.72
2023-03-16T20:43:32.056Z,4.28
2023-03-16T20:46:01.328Z,4.35
2023-03-16T20:48:29.264Z,4.07
2023-03-16T20:50:57.235Z,4.10
2023-03-16T20:53:24.437Z,3.90
2023-03-16T20:55:52.663Z,4.38
2023-03-16T20:58:21.172Z,4.05
2023-03-16T21:00:50.620Z,4.15
2023-03-16T21:03:18.990Z,4.22
2023-03-16T21:05:46.230Z,3.15
2023-03-16T21:08:14.165Z,4.25
2023-03-16T21:10:42.784Z,5.35
2023-03-16T21:13:19.577Z,3.45
2023-03-16T21:15:49.720Z,3.55
2023-03-16T21:18:21.698Z,2.92
2023-03-16T21:20:50.238Z,3.45
2023-03-16T21:23:22.744Z,3.42
2023-03-16T21:25:55.908Z,3.13
2023-03-16T21:28:25.464Z,3.65
2023-03-16T21:30:54.517Z,3.55
2023-03-16T21:33:35.176Z,3.03
2023-03-16T21:36:04.622Z,3.58
2023-03-16T21:38:32.800Z,3.17
2023-03-16T21:41:00.197Z,3.10
2023-03-16T21:43:27.633Z,3.45
2023-03-16T21:45:55.553Z,3.33
2023-03-16T21:48:25.433Z,4.05
2023-03-16T21:50:53.786Z,4.15
2023-03-16T21:53:23.664Z,3.20
2023-03-16T21:55:51.856Z,3.70
2023-03-16T21:58:19.394Z,3.22
2023-03-16T22:00:47.427Z,3.10
2023-03-16T22:03:47.758Z,3.03
2023-03-16T22:06:17.044Z,2.67
2023-03-16T22:08:44.034Z,2.45
2023-03-16T22:11:18.138Z,2.83
2023-03-16T22:13:45.143Z,2.78
2023-03-16T22:16:18.730Z,2.67
2023-03-16T22:18:48.124Z,2.50
2023-03-16T22:21:23.771Z,2.67
2023-03-16T22:23:51.556Z,2.90
2023-03-16T22:26:20.365Z,3.00
2023-03-16T22:28:48.211Z,2.63
2023-03-16T22:31:17.941Z,3.00
2023-03-16T22:33:47.604Z,3.75
2023-03-16T22:36:20.246Z,2.85
2023-03-16T22:38:57.051Z,2.95
2023-03-16T22:41:23.953Z,2.65
2023-03-16T22:43:51.207Z,2.65
2023-03-16T22:46:23.579Z,2.60
2023-03-16T22:48:52.207Z,3.08
2023-03-16T22:51:25.887Z,4.00
2023-03-16T22:54:01.041Z,3.83
2023-03-16T22:56:30.111Z,3.45
2023-03-16T22:59:00.922Z,3.05
2023-03-16T23:01:34.970Z,3.30
2023-03-16T23:04:02.363Z,2.80
2023-03-16T23:06:31.767Z,3.75
2023-03-16T23:08:59.293Z,3.00
2023-03-16T23:11:28.680Z,3.15
2023-03-16T23:13:55.796Z,2.85
2023-03-16T23:16:25.654Z,2.80
2023-03-16T23:18:53.288Z,3.17
2023-03-16T23:21:22.952Z,3.28
2023-03-16T23:24:03.049Z,2.80
2023-03-16T23:26:31.191Z,2.67
2023-03-16T23:28:58.269Z,2.70
2023-03-16T23:31:27.266Z,3.17
2023-03-16T23:33:54.401Z,2.88
2023-03-16T23:36:22.994Z,3.70
2023-03-16T23:38:50.498Z,2.92
2023-03-16T23:41:23.018Z,3.95
2023-03-16T23:43:50.900Z,2.78
2023-03-16T23:46:20.964Z,2.97
2023-03-16T23:48:49.272Z,2.70
2023-03-16T23:51:22.812Z,3.90
2023-03-16T23:53:50.515Z,2.70
2023-03-16T23:56:17.955Z,2.55
2023-03-16T23:58:44.966Z,2.25
